Bentley, North Dakota
Current Conditions -  °F | °C
As of 1:55 PM on Thursday 23 Oct 2014 (Local Time) from KD57 Reporting Station
Clear Clear  
Wind Chill: 70°   Ceiling: Unl
Heat Index: 70°   Visibility: 10mi
Dew Point: 28°   Wind: 8mph
Humidity: 21%   Direction: 230°SW
Pressure: 29.81"   Gusts: NA
Location:  46.3715°N, 101.864°W
Report Text: KD57 231955Z AUTO 23007KT 10SM CLR 21/M02 A2981 RMK AO2 TSNO
Loading
Personal Weather Stations






























Interactive Weather Map
Tropical Storm Tracking
New forecast layout! Learn more

10-Day Weather Forecast

Advertisements
Track Severe Weather on mobile